createdAt,value
2016-08-02T00:00:10.859Z,17.6
2016-08-02T00:01:10.836Z,17.54
2016-08-02T00:02:10.819Z,17.51
2016-08-02T00:03:10.800Z,17.59
2016-08-02T00:04:10.784Z,17.54
2016-08-02T00:05:10.759Z,17.51
2016-08-02T00:06:10.738Z,17.49
2016-08-02T00:07:10.724Z,17.54
2016-08-02T00:08:10.696Z,17.54
2016-08-02T00:09:10.675Z,17.48
2016-08-02T00:10:10.654Z,17.46
2016-08-02T00:11:10.629Z,17.49
2016-08-02T00:12:10.611Z,17.41
2016-08-02T00:13:10.589Z,17.33
2016-08-02T00:14:10.568Z,17.44
2016-08-02T00:15:10.549Z,17.31
2016-08-02T00:16:10.531Z,17.16
2016-08-02T00:17:10.517Z,17.22
2016-08-02T00:18:10.488Z,17.12
2016-08-02T00:19:10.466Z,17.05
2016-08-02T00:20:10.455Z,17.04
2016-08-02T00:21:10.424Z,17.04
2016-08-02T00:22:10.405Z,16.93
2016-08-02T00:23:10.383Z,17.02
2016-08-02T00:24:10.365Z,16.96
2016-08-02T00:25:10.344Z,16.96
2016-08-02T00:26:10.331Z,16.91
2016-08-02T00:27:10.304Z,16.99
2016-08-02T00:28:10.283Z,16.89
2016-08-02T00:29:10.272Z,16.83
2016-08-02T00:30:10.244Z,16.86
2016-08-02T00:31:10.220Z,16.9
2016-08-02T00:32:10.203Z,16.89
2016-08-02T00:33:10.179Z,16.86
2016-08-02T00:34:10.156Z,16.87
2016-08-02T00:35:10.136Z,16.9
2016-08-02T00:36:10.118Z,16.84
2016-08-02T00:37:10.093Z,16.84
2016-08-02T00:38:10.074Z,16.89
2016-08-02T00:39:10.053Z,16.81
2016-08-02T00:40:10.030Z,16.93
2016-08-02T00:41:10.007Z,16.84
2016-08-02T00:42:10.007Z,16.96
2016-08-02T00:43:09.981Z,16.84
2016-08-02T00:44:10.639Z,16.9
2016-08-02T00:45:10.627Z,16.97
2016-08-02T00:46:09.907Z,16.89
2016-08-02T00:47:09.884Z,16.9
2016-08-02T00:48:09.861Z,17.01
2016-08-02T00:49:09.846Z,16.96
2016-08-02T00:50:09.821Z,16.87
2016-08-02T00:51:09.801Z,16.94
2016-08-02T00:52:09.828Z,16.87
2016-08-02T00:53:09.764Z,16.87
2016-08-02T00:54:09.737Z,16.86
2016-08-02T00:55:09.713Z,16.91
2016-08-02T00:56:09.695Z,16.91
2016-08-02T00:57:09.673Z,16.94
2016-08-02T00:58:09.665Z,16.97
2016-08-02T00:59:09.653Z,16.94
2016-08-02T01:00:09.610Z,16.97
2016-08-02T01:01:09.594Z,16.96
2016-08-02T01:02:09.570Z,16.97
2016-08-02T01:03:09.551Z,17.04
2016-08-02T01:04:09.525Z,16.99
2016-08-02T01:05:09.506Z,16.94
2016-08-02T01:06:09.486Z,16.93
2016-08-02T01:07:09.464Z,16.96
2016-08-02T01:08:09.444Z,16.93
2016-08-02T01:09:09.423Z,16.99
2016-08-02T01:10:09.399Z,16.99
2016-08-02T01:11:09.380Z,16.86
2016-08-02T01:12:09.360Z,16.93
2016-08-02T01:13:09.337Z,16.9
2016-08-02T01:14:09.315Z,16.97
2016-08-02T01:15:09.313Z,16.91
2016-08-02T01:16:09.278Z,16.86
2016-08-02T01:17:09.252Z,16.91
2016-08-02T01:18:09.231Z,16.84
2016-08-02T01:19:09.212Z,16.72
2016-08-02T01:20:09.196Z,16.68
2016-08-02T01:21:09.170Z,16.58
2016-08-02T01:22:09.153Z,16.6
2016-08-02T01:23:09.127Z,16.43
2016-08-02T01:24:09.114Z,16.38
2016-08-02T01:25:09.089Z,16.29
2016-08-02T01:26:09.066Z,16.31
2016-08-02T01:27:09.043Z,16.29
2016-08-02T01:28:09.021Z,16.26
2016-08-02T01:29:09.001Z,16.31
2016-08-02T01:30:08.980Z,16.21
2016-08-02T01:31:08.961Z,16.13
2016-08-02T01:32:08.940Z,16.16
2016-08-02T01:33:08.916Z,16.15
2016-08-02T01:34:08.897Z,16.21
2016-08-02T01:35:08.875Z,16.21
2016-08-02T01:36:08.852Z,16.13
2016-08-02T01:37:08.829Z,16.17
2016-08-02T01:38:08.813Z,16.15
2016-08-02T01:39:08.785Z,16.15
2016-08-02T01:40:08.768Z,16.09
2016-08-02T01:41:08.744Z,16.09
2016-08-02T01:42:08.722Z,16.04
2016-08-02T01:43:08.700Z,16.05
2016-08-02T01:44:08.680Z,16.08
2016-08-02T01:45:08.656Z,16.1
2016-08-02T01:46:08.642Z,16.13
2016-08-02T01:47:08.619Z,16.08
2016-08-02T01:48:08.598Z,16.08
2016-08-02T01:49:08.573Z,16.08
2016-08-02T01:50:08.553Z,16.02
2016-08-02T01:51:08.531Z,16.05
2016-08-02T01:52:08.512Z,16.08
2016-08-02T01:53:08.485Z,16.08
2016-08-02T01:54:08.465Z,16.09
2016-08-02T01:55:08.446Z,16.2
2016-08-02T01:56:08.424Z,16.26
2016-08-02T01:57:08.400Z,16.21
2016-08-02T01:58:08.389Z,16.13
2016-08-02T01:59:08.367Z,16.23
2016-08-02T02:00:08.335Z,16.24
2016-08-02T02:01:08.318Z,16.2
2016-08-02T02:02:08.414Z,16.2
2016-08-02T02:03:08.272Z,16.23
2016-08-02T02:04:08.250Z,16.24
2016-08-02T02:05:08.230Z,16.33
2016-08-02T02:06:08.218Z,16.29
2016-08-02T02:07:08.187Z,16.26
2016-08-02T02:08:08.165Z,16.33
2016-08-02T02:09:08.145Z,16.33
2016-08-02T02:10:08.123Z,16.35
2016-08-02T02:11:08.105Z,16.31
2016-08-02T02:12:08.078Z,16.41
2016-08-02T02:13:08.055Z,16.31
2016-08-02T02:14:08.040Z,16.35
2016-08-02T02:15:08.015Z,16.38
2016-08-02T02:16:07.990Z,16.36
2016-08-02T02:17:07.980Z,16.38
2016-08-02T02:18:07.948Z,16.35
2016-08-02T02:19:07.925Z,16.38
2016-08-02T02:20:07.907Z,16.41
2016-08-02T02:21:07.886Z,16.39
2016-08-02T02:22:07.865Z,16.41
2016-08-02T02:23:07.844Z,16.43
2016-08-02T02:24:07.825Z,16.5
2016-08-02T02:25:07.802Z,16.47
2016-08-02T02:26:07.780Z,16.51
2016-08-02T02:27:07.760Z,16.49
2016-08-02T02:28:07.744Z,16.56
2016-08-02T02:29:07.721Z,16.54
2016-08-02T02:30:07.696Z,16.58
2016-08-02T02:31:07.676Z,16.56
2016-08-02T02:32:07.652Z,16.51
2016-08-02T02:33:07.631Z,16.65
2016-08-02T02:34:07.612Z,16.57
2016-08-02T02:35:07.590Z,16.6
2016-08-02T02:36:07.568Z,16.64
2016-08-02T02:37:07.547Z,16.65
2016-08-02T02:38:07.527Z,16.66
2016-08-02T02:39:07.506Z,16.65
2016-08-02T02:40:07.487Z,16.64
2016-08-02T02:41:07.463Z,16.6
2016-08-02T02:42:07.438Z,16.64
2016-08-02T02:43:07.419Z,16.68
2016-08-02T02:44:07.401Z,16.71
2016-08-02T02:45:07.378Z,16.71
2016-08-02T02:46:07.354Z,16.66
2016-08-02T02:47:07.334Z,16.71
2016-08-02T02:48:07.315Z,16.72
2016-08-02T02:49:07.292Z,16.69
2016-08-02T02:50:07.273Z,16.71
2016-08-02T02:51:07.255Z,16.79
2016-08-02T02:52:07.231Z,16.72
2016-08-02T02:53:07.207Z,16.75
2016-08-02T02:55:07.170Z,16.69
2016-08-02T02:56:07.145Z,16.69
2016-08-02T02:57:07.123Z,16.68
2016-08-02T02:58:07.103Z,16.69
2016-08-02T02:59:07.083Z,16.66
2016-08-02T03:00:07.064Z,16.58
2016-08-02T03:01:07.040Z,16.64
2016-08-02T03:02:07.019Z,16.64
2016-08-02T03:03:06.996Z,16.61
2016-08-02T03:04:06.980Z,16.65
2016-08-02T03:05:06.960Z,16.66
2016-08-02T03:06:06.932Z,16.6
2016-08-02T03:07:06.912Z,16.65
2016-08-02T03:08:06.893Z,16.64
2016-08-02T03:10:06.852Z,16.64
2016-08-02T03:11:06.828Z,16.61
2016-08-02T03:12:06.805Z,16.61
2016-08-02T03:13:06.790Z,16.61
2016-08-02T03:14:06.762Z,16.65
2016-08-02T03:15:06.744Z,16.58
2016-08-02T03:16:06.724Z,16.58
2016-08-02T03:17:06.705Z,16.56
2016-08-02T03:18:06.679Z,16.58
2016-08-02T03:19:06.660Z,16.65
2016-08-02T03:20:06.641Z,16.57
2016-08-02T03:21:06.622Z,16.64
2016-08-02T03:22:06.596Z,16.64
2016-08-02T03:23:06.576Z,16.57
2016-08-02T03:24:06.555Z,16.57
2016-08-02T03:25:06.534Z,16.64
2016-08-02T03:26:06.512Z,16.57
2016-08-02T03:27:06.488Z,16.56
2016-08-02T03:28:06.468Z,16.6
2016-08-02T03:29:06.446Z,16.56
2016-08-02T03:30:06.426Z,16.53
2016-08-02T03:31:06.415Z,16.64
2016-08-02T03:32:06.386Z,16.6
2016-08-02T03:33:06.362Z,16.64
2016-08-02T03:34:06.341Z,16.64
2016-08-02T03:35:06.330Z,16.56
2016-08-02T03:36:06.301Z,16.64
2016-08-02T03:37:06.282Z,16.6
2016-08-02T03:38:06.256Z,16.61
2016-08-02T03:39:06.236Z,16.6
2016-08-02T03:40:06.217Z,16.61
2016-08-02T03:41:06.194Z,16.56
2016-08-02T03:42:06.178Z,16.57
2016-08-02T03:43:06.153Z,16.6
2016-08-02T03:44:06.131Z,16.64
2016-08-02T03:45:06.115Z,16.6
2016-08-02T03:46:06.099Z,16.61
2016-08-02T03:47:06.067Z,16.68
2016-08-02T03:48:06.054Z,16.57
2016-08-02T03:49:06.025Z,16.65
2016-08-02T03:50:06.005Z,16.61
2016-08-02T03:51:05.984Z,16.57
2016-08-02T03:52:05.959Z,16.57
2016-08-02T03:53:05.951Z,16.53
2016-08-02T03:54:05.916Z,16.64
2016-08-02T03:55:05.904Z,16.64
2016-08-02T03:56:05.874Z,16.56
2016-08-02T03:57:05.855Z,16.57
2016-08-02T03:58:05.833Z,16.57
2016-08-02T03:59:05.809Z,16.64
2016-08-02T04:00:05.793Z,16.64
2016-08-02T04:01:05.772Z,16.64
2016-08-02T04:02:05.750Z,16.64
2016-08-02T04:03:05.730Z,16.6
2016-08-02T04:04:05.704Z,16.65
2016-08-02T04:05:05.685Z,16.64
2016-08-02T04:06:05.661Z,16.66
2016-08-02T04:07:05.643Z,16.65
2016-08-02T04:08:05.621Z,16.6
2016-08-02T04:09:05.598Z,16.61
2016-08-02T04:10:05.581Z,16.61
2016-08-02T04:11:05.560Z,16.6
2016-08-02T04:12:05.537Z,16.64
2016-08-02T04:13:05.514Z,16.64
2016-08-02T04:14:05.492Z,16.65
2016-08-02T04:15:05.471Z,16.61
2016-08-02T04:16:05.448Z,16.6
2016-08-02T04:17:05.448Z,16.61
2016-08-02T04:18:05.410Z,16.61
2016-08-02T04:19:05.399Z,16.64
2016-08-02T04:20:06.057Z,16.64
2016-08-02T04:21:05.349Z,16.57
2016-08-02T04:22:05.323Z,16.61
2016-08-02T04:23:05.306Z,16.56
2016-08-02T04:24:05.282Z,16.64
2016-08-02T04:25:05.260Z,16.58
2016-08-02T04:26:05.241Z,16.64
2016-08-02T04:27:05.219Z,16.61
2016-08-02T04:28:05.197Z,16.64
2016-08-02T04:29:05.176Z,16.64
2016-08-02T04:30:05.155Z,16.61
2016-08-02T04:31:05.131Z,16.64
2016-08-02T04:32:05.113Z,16.6
2016-08-02T04:33:05.092Z,16.58
2016-08-02T04:34:05.071Z,16.68
2016-08-02T04:35:05.049Z,16.68
2016-08-02T04:36:05.031Z,16.58
2016-08-02T04:37:05.007Z,16.66
2016-08-02T04:38:04.987Z,16.61
2016-08-02T04:39:04.965Z,16.66
2016-08-02T04:40:04.945Z,16.64
2016-08-02T04:41:04.928Z,16.71
2016-08-02T04:42:04.902Z,16.68
2016-08-02T04:43:04.879Z,16.68
2016-08-02T04:44:04.856Z,16.64
2016-08-02T04:45:04.836Z,16.61
2016-08-02T04:46:04.818Z,16.61
2016-08-02T04:47:04.795Z,16.66
2016-08-02T04:48:04.774Z,16.64
2016-08-02T04:49:04.752Z,16.65
2016-08-02T04:50:04.734Z,16.56
2016-08-02T04:51:04.712Z,16.51
2016-08-02T04:52:04.690Z,16.51
2016-08-02T04:53:04.684Z,16.49
2016-08-02T04:54:04.651Z,16.42
2016-08-02T04:55:04.627Z,16.49
2016-08-02T04:56:04.606Z,16.43
2016-08-02T04:57:04.586Z,16.42
2016-08-02T04:58:04.574Z,16.49
2016-08-02T04:59:04.547Z,16.43
2016-08-02T05:00:04.523Z,16.5
2016-08-02T05:01:04.501Z,16.46
2016-08-02T05:02:04.484Z,16.49
2016-08-02T05:03:04.473Z,16.47
2016-08-02T05:04:04.441Z,16.56
2016-08-02T05:05:04.420Z,16.47
2016-08-02T05:06:04.397Z,16.51
2016-08-02T05:07:04.374Z,16.49
2016-08-02T05:08:04.356Z,16.58
2016-08-02T05:09:04.338Z,16.54
2016-08-02T05:10:04.314Z,16.64
2016-08-02T05:11:04.290Z,16.58
2016-08-02T05:12:04.270Z,16.57
2016-08-02T05:13:04.248Z,16.56
2016-08-02T05:14:04.233Z,16.58
2016-08-02T05:15:04.208Z,16.57
2016-08-02T05:16:04.188Z,16.61
2016-08-02T05:17:04.165Z,16.57
2016-08-02T05:18:04.156Z,16.56
2016-08-02T05:19:04.122Z,16.61
2016-08-02T05:20:04.111Z,16.6
2016-08-02T05:21:04.082Z,16.6
2016-08-02T05:22:04.061Z,16.64
2016-08-02T05:23:04.043Z,16.58
2016-08-02T05:24:04.020Z,16.65
2016-08-02T05:25:03.998Z,16.65
2016-08-02T05:26:03.979Z,16.6
2016-08-02T05:27:03.959Z,16.57
2016-08-02T05:28:03.936Z,16.6
2016-08-02T05:29:03.914Z,16.71
2016-08-02T05:30:03.895Z,16.68
2016-08-02T05:31:03.881Z,16.69
2016-08-02T05:32:03.854Z,16.69
2016-08-02T05:33:03.833Z,16.74
2016-08-02T05:34:04.795Z,16.78
2016-08-02T05:35:04.548Z,16.81
2016-08-02T05:36:03.770Z,16.9
2016-08-02T05:37:03.752Z,16.89
2016-08-02T05:38:03.724Z,16.89
2016-08-02T05:39:03.706Z,16.93
2016-08-02T05:40:03.684Z,16.96
2016-08-02T05:41:03.666Z,16.84
2016-08-02T05:42:03.885Z,16.96
2016-08-02T05:43:03.688Z,16.96
2016-08-02T05:44:03.602Z,16.97
2016-08-02T05:45:03.597Z,16.91
2016-08-02T05:46:03.565Z,17.01
2016-08-02T05:47:03.543Z,16.96
2016-08-02T05:48:03.536Z,16.99
2016-08-02T05:49:03.500Z,16.97
2016-08-02T05:50:03.482Z,16.99
2016-08-02T05:51:03.463Z,17.02
2016-08-02T05:52:03.441Z,17.01
2016-08-02T05:53:03.432Z,16.97
2016-08-02T05:54:03.402Z,16.96
2016-08-02T05:55:03.398Z,16.97
2016-08-02T05:56:03.362Z,16.99
2016-08-02T05:57:03.411Z,16.96
2016-08-02T05:58:03.334Z,16.99
2016-08-02T05:59:03.375Z,16.94
2016-08-02T06:00:03.283Z,16.94
2016-08-02T06:01:03.261Z,16.93
2016-08-02T06:02:03.240Z,17.11
2016-08-02T06:03:03.220Z,17.02
2016-08-02T06:04:03.198Z,16.93
2016-08-02T06:05:03.179Z,16.99
2016-08-02T06:06:03.156Z,17.09
2016-08-02T06:07:03.140Z,17.04
2016-08-02T06:08:04.180Z,17.05
2016-08-02T06:09:03.097Z,17.05
2016-08-02T06:10:03.083Z,17.02
2016-08-02T06:11:03.055Z,17.05
2016-08-02T06:12:03.037Z,17.01
2016-08-02T06:13:03.018Z,17.04
2016-08-02T06:14:02.999Z,17.02
2016-08-02T06:15:02.975Z,17.09
2016-08-02T06:16:02.955Z,17.08
2016-08-02T06:17:02.932Z,17.08
2016-08-02T06:18:02.914Z,17.05
2016-08-02T06:19:02.895Z,17.16
2016-08-02T06:20:02.888Z,17.16
2016-08-02T06:21:02.852Z,17.23
2016-08-02T06:22:03.105Z,17.2
2016-08-02T06:23:02.815Z,17.23
2016-08-02T06:24:02.830Z,17.29
2016-08-02T06:25:03.299Z,17.38
2016-08-02T06:26:03.085Z,17.44
2016-08-02T06:27:02.786Z,17.44
2016-08-02T06:28:02.972Z,17.48
2016-08-02T06:29:02.691Z,17.52
2016-08-02T06:30:02.672Z,17.51
2016-08-02T06:31:02.656Z,17.45
2016-08-02T06:32:02.899Z,17.46
2016-08-02T06:33:03.689Z,17.44
2016-08-02T06:34:02.827Z,17.52
2016-08-02T06:35:02.615Z,17.44
2016-08-02T06:36:02.865Z,17.57
2016-08-02T06:37:02.547Z,17.54
2016-08-02T06:38:02.990Z,17.52
2016-08-02T06:39:02.540Z,17.51
2016-08-02T06:40:02.590Z,17.63
2016-08-02T06:41:02.879Z,17.7
2016-08-02T06:42:02.840Z,17.64
2016-08-02T06:43:02.878Z,17.71
2016-08-02T06:44:02.630Z,17.72
2016-08-02T06:45:02.915Z,17.71
2016-08-02T06:46:02.555Z,17.71
2016-08-02T06:47:02.603Z,17.68
2016-08-02T06:48:02.630Z,17.72
2016-08-02T06:49:02.306Z,17.79
2016-08-02T06:50:02.879Z,17.74
2016-08-02T06:51:03.301Z,17.82
2016-08-02T06:52:02.919Z,17.82
2016-08-02T06:53:02.232Z,17.83
2016-08-02T06:54:02.577Z,17.83
2016-08-02T06:55:02.513Z,18
2016-08-02T06:56:02.537Z,17.98
2016-08-02T06:57:02.735Z,18.07
2016-08-02T06:58:02.546Z,18.18
2016-08-02T06:59:02.482Z,18.25
2016-08-02T07:00:02.869Z,18.13
2016-08-02T07:01:03.167Z,18.2
2016-08-02T07:02:04.035Z,18.23
2016-08-02T07:03:02.073Z,18.25
2016-08-02T07:04:02.339Z,18.28
2016-08-02T07:05:03.827Z,18.33
2016-08-02T07:06:02.794Z,18.31
2016-08-02T07:07:02.581Z,18.35
2016-08-02T07:08:03.021Z,18.45
2016-08-02T07:09:03.756Z,18.44
2016-08-02T07:10:03.078Z,18.52
2016-08-02T07:11:02.843Z,18.55
2016-08-02T07:12:04.115Z,18.58
2016-08-02T07:13:03.166Z,18.56
2016-08-02T07:14:03.035Z,18.62
2016-08-02T07:15:03.199Z,18.63
2016-08-02T07:16:02.603Z,18.65
2016-08-02T07:17:02.820Z,18.63
2016-08-02T07:18:02.961Z,18.8
2016-08-02T07:19:02.030Z,18.75
2016-08-02T07:20:03.229Z,18.75
2016-08-02T07:21:02.146Z,18.89
2016-08-02T07:22:01.972Z,18.9
2016-08-02T07:23:01.954Z,18.95
2016-08-02T07:24:01.934Z,18.96
2016-08-02T07:25:02.671Z,19.08
2016-08-02T07:26:02.277Z,19.02
2016-08-02T07:27:02.454Z,19.12
2016-08-02T07:28:02.262Z,19.08
2016-08-02T07:29:03.426Z,19.19
2016-08-02T07:30:02.180Z,19.31
2016-08-02T07:31:02.225Z,19.47
2016-08-02T07:32:02.861Z,19.55
2016-08-02T07:33:02.585Z,19.66
2016-08-02T07:34:02.643Z,19.71
2016-08-02T07:35:02.443Z,19.71
2016-08-02T07:36:02.430Z,19.74
2016-08-02T07:37:02.511Z,19.71
2016-08-02T07:38:02.582Z,19.81
2016-08-02T07:39:02.026Z,19.86
2016-08-02T07:40:01.521Z,19.85
2016-08-02T07:41:01.368Z,19.73
2016-08-02T07:42:02.120Z,19.79
2016-08-02T07:43:02.579Z,19.7
2016-08-02T07:44:02.593Z,19.67
2016-08-02T07:45:02.921Z,19.71
2016-08-02T07:46:02.452Z,19.71
2016-08-02T07:47:02.606Z,19.73
2016-08-02T07:48:02.308Z,19.66
2016-08-02T07:49:03.135Z,19.66
2016-08-02T07:50:02.307Z,19.49
2016-08-02T07:51:02.184Z,19.51
2016-08-02T07:52:02.371Z,19.52
2016-08-02T07:53:02.504Z,19.44
2016-08-02T07:54:02.495Z,19.33
2016-08-02T07:55:02.395Z,19.41
2016-08-02T07:56:02.678Z,19.39
2016-08-02T07:57:02.007Z,19.31
2016-08-02T07:58:02.373Z,19.29
2016-08-02T07:59:03.039Z,19.26
2016-08-02T08:00:02.073Z,19.24
2016-08-02T08:01:02.231Z,19.3
2016-08-02T08:02:02.473Z,19.18
2016-08-02T08:03:02.079Z,19.18
2016-08-02T08:04:01.984Z,19.18
2016-08-02T08:05:01.930Z,19.16
2016-08-02T08:06:01.857Z,19.12
2016-08-02T08:07:02.074Z,19.02
2016-08-02T08:08:01.746Z,19.08
2016-08-02T08:09:02.045Z,18.99
2016-08-02T08:10:02.048Z,18.98
2016-08-02T08:11:01.860Z,18.96
2016-08-02T08:12:01.086Z,18.88
2016-08-02T08:13:00.973Z,18.83
2016-08-02T08:14:01.280Z,18.78
2016-08-02T08:15:01.105Z,18.8
2016-08-02T08:16:01.540Z,18.78
2016-08-02T08:17:01.182Z,18.73
2016-08-02T08:18:02.171Z,18.65
2016-08-02T08:19:03.236Z,18.66
2016-08-02T08:20:02.042Z,18.63
2016-08-02T08:21:01.797Z,18.6
2016-08-02T08:22:02.002Z,18.59
2016-08-02T08:23:02.058Z,18.68
2016-08-02T08:24:02.069Z,18.59
2016-08-02T08:26:01.917Z,18.65
2016-08-02T08:27:01.993Z,18.55
2016-08-02T08:28:01.456Z,18.58
2016-08-02T08:29:01.474Z,18.45
2016-08-02T08:30:00.901Z,18.52
2016-08-02T08:31:01.046Z,18.56
2016-08-02T08:32:01.296Z,18.59
2016-08-02T08:33:01.441Z,18.58
2016-08-02T08:34:01.391Z,18.59
2016-08-02T08:35:00.729Z,18.66
2016-08-02T08:36:01.458Z,18.65
2016-08-02T08:37:00.452Z,18.65
2016-08-02T08:38:00.341Z,18.59
2016-08-02T08:39:00.374Z,18.59
2016-08-02T08:41:01.306Z,18.75
2016-08-02T08:42:01.238Z,18.77
2016-08-02T08:43:02.253Z,18.81
2016-08-02T08:44:00.723Z,18.95
2016-08-02T08:45:00.880Z,18.96
2016-08-02T08:46:01.507Z,19
2016-08-02T08:47:01.515Z,19.11
2016-08-02T08:48:01.309Z,19.16
2016-08-02T08:49:01.365Z,19.29
2016-08-02T08:50:00.906Z,19.29
2016-08-02T08:51:00.668Z,19.39
2016-08-02T08:52:00.605Z,19.47
2016-08-02T08:53:00.425Z,19.48
2016-08-02T08:54:00.750Z,19.36
2016-08-02T08:56:01.119Z,19.52
2016-08-02T08:57:01.694Z,19.49
2016-08-02T08:58:01.012Z,19.49
2016-08-02T08:59:00.878Z,19.52
2016-08-02T09:00:00.374Z,19.45
2016-08-02T09:01:00.380Z,19.51
2016-08-02T09:02:01.179Z,19.48
2016-08-02T09:03:00.900Z,19.36
2016-08-02T09:04:00.547Z,19.45
2016-08-02T09:05:00.895Z,19.33
2016-08-02T09:06:01.468Z,19.49
2016-08-02T09:07:00.743Z,19.51
2016-08-02T09:08:00.595Z,19.62
2016-08-02T09:09:01.904Z,19.67
2016-08-02T09:10:00.765Z,19.81
2016-08-02T09:11:00.677Z,19.89
2016-08-02T09:12:01.228Z,19.96
2016-08-02T09:13:00.775Z,20.02
2016-08-02T09:14:01.076Z,20.04
2016-08-02T09:15:00.653Z,20.11
2016-08-02T09:16:00.844Z,20.18
2016-08-02T09:17:00.885Z,20.22
2016-08-02T09:18:00.574Z,20.14
2016-08-02T09:19:00.951Z,20.26
2016-08-02T09:20:00.548Z,20.32
2016-08-02T09:21:00.714Z,20.52
2016-08-02T09:22:00.267Z,20.44
2016-08-02T09:23:00.747Z,20.58
2016-08-02T09:24:01.135Z,20.7
2016-08-02T09:25:00.591Z,20.82
2016-08-02T09:26:00.779Z,20.92
2016-08-02T09:27:00.439Z,20.97
2016-08-02T09:28:00.663Z,21.02
2016-08-02T09:29:00.922Z,20.92
2016-08-02T09:30:01.043Z,20.9
2016-08-02T09:31:00.193Z,20.81
2016-08-02T09:32:00.146Z,20.78
2016-08-02T09:33:02.102Z,20.7
2016-08-02T09:34:01.387Z,20.69
2016-08-02T09:35:01.001Z,20.75
2016-08-02T09:36:00.895Z,20.63
2016-08-02T09:37:00.861Z,20.58
2016-08-02T09:38:00.752Z,20.48
2016-08-02T09:39:00.384Z,20.41
2016-08-02T09:40:00.683Z,20.37
2016-08-02T09:41:00.923Z,20.29
2016-08-02T09:42:00.211Z,20.14
2016-08-02T09:43:00.160Z,20.18
2016-08-02T09:44:00.463Z,20.18
2016-08-02T09:45:00.901Z,20.14
2016-08-02T09:46:00.384Z,20.18
2016-08-02T09:47:00.427Z,20.19
2016-08-02T09:48:00.702Z,20.26
2016-08-02T09:49:00.613Z,20.29
2016-08-02T09:50:00.591Z,20.41
2016-08-02T09:51:00.784Z,20.5
2016-08-02T09:52:00.764Z,20.59
2016-08-02T09:53:00.555Z,20.7
2016-08-02T09:54:00.304Z,20.9
2016-08-02T09:55:01.336Z,21.05
2016-08-02T09:56:00.865Z,21.03
2016-08-02T09:57:00.604Z,21.15
2016-08-02T09:58:00.542Z,21.21
2016-08-02T09:59:00.408Z,21.25
2016-08-02T10:00:00.372Z,21.35
2016-08-02T10:01:00.406Z,21.4
2016-08-02T10:02:00.093Z,21.51
2016-08-02T10:03:00.284Z,21.54
2016-08-02T10:04:00.249Z,21.62
2016-08-02T10:05:00.058Z,21.69
2016-08-02T10:06:00.170Z,21.72
2016-08-02T10:07:00.128Z,21.85
2016-08-02T10:08:00.112Z,21.91
2016-08-02T10:09:00.165Z,22.04
2016-08-02T10:10:00.311Z,22.17
2016-08-02T10:11:00.196Z,22.3
2016-08-02T10:12:00.260Z,22.44
2016-08-02T10:13:00.749Z,22.39
2016-08-02T10:14:00.327Z,22.5
2016-08-02T10:15:00.928Z,22.48
2016-08-02T10:16:00.259Z,22.57
2016-08-02T10:17:01.289Z,22.63
2016-08-02T10:18:00.048Z,22.59
2016-08-02T10:19:00.191Z,22.47
2016-08-02T10:20:00.413Z,22.36
2016-08-02T10:21:00.038Z,22.43
2016-08-02T10:22:00.074Z,22.35
2016-08-02T10:22:59.983Z,22.25
2016-08-02T10:24:00.717Z,22.2
2016-08-02T10:25:00.203Z,22.07
2016-08-02T10:26:00.120Z,21.88
2016-08-02T10:27:00.357Z,21.73
2016-08-02T10:27:59.801Z,21.62
2016-08-02T10:28:59.808Z,21.52
2016-08-02T10:29:59.799Z,21.37
2016-08-02T10:30:59.887Z,21.36
2016-08-02T10:31:59.981Z,21.22
2016-08-02T10:32:59.750Z,21.09
2016-08-02T10:33:59.322Z,21.02
2016-08-02T10:34:59.542Z,21.02
2016-08-02T10:35:59.692Z,21.03
2016-08-02T10:36:59.222Z,21.02
2016-08-02T10:38:00.063Z,21.02
2016-08-02T10:38:59.474Z,21
2016-08-02T10:39:59.577Z,20.99
2016-08-02T10:40:59.296Z,20.9
2016-08-02T10:41:59.367Z,20.9
2016-08-02T10:42:59.612Z,20.92
2016-08-02T10:43:58.934Z,20.99
2016-08-02T10:44:59.580Z,20.95
2016-08-02T10:45:59.216Z,20.95
2016-08-02T10:46:59.722Z,20.96
2016-08-02T10:47:59.182Z,20.99
2016-08-02T10:48:59.854Z,21.02
2016-08-02T10:49:59.334Z,21.05
2016-08-02T10:50:59.429Z,21.12
2016-08-02T10:51:59.093Z,21.17
2016-08-02T10:52:59.465Z,21.21
2016-08-02T10:53:59.521Z,21.27
2016-08-02T10:54:59.315Z,21.3
2016-08-02T10:55:59.188Z,21.37
2016-08-02T10:56:59.258Z,21.36
2016-08-02T10:57:59.620Z,21.46
2016-08-02T10:58:59.277Z,21.57
2016-08-02T10:59:59.767Z,21.6
2016-08-02T11:00:59.038Z,21.67
2016-08-02T11:01:59.369Z,21.8
2016-08-02T11:02:59.539Z,21.89
2016-08-02T11:04:00.227Z,21.89
2016-08-02T11:05:00.643Z,21.93
2016-08-02T11:05:59.028Z,21.93
2016-08-02T11:06:58.934Z,22.07
2016-08-02T11:07:59.118Z,22.07
2016-08-02T11:08:59.657Z,22.08
2016-08-02T11:09:59.083Z,21.99
2016-08-02T11:10:58.779Z,22
2016-08-02T11:11:59.203Z,22.04
2016-08-02T11:12:58.606Z,22.14
2016-08-02T11:13:58.566Z,22.04
2016-08-02T11:14:59.325Z,22.06
2016-08-02T11:16:00.112Z,22.02
2016-08-02T11:16:59.123Z,22.02
2016-08-02T11:17:59.049Z,21.93
2016-08-02T11:18:59.226Z,21.93
2016-08-02T11:19:58.959Z,21.82
2016-08-02T11:20:59.026Z,21.82
2016-08-02T11:21:58.714Z,21.79
2016-08-02T11:22:58.872Z,21.72
2016-08-02T11:23:58.586Z,21.77
2016-08-02T11:24:58.940Z,21.72
2016-08-02T11:25:57.976Z,21.64
2016-08-02T11:26:58.826Z,21.76
2016-08-02T11:27:58.794Z,21.69
2016-08-02T11:28:58.836Z,21.72
2016-08-02T11:29:59.788Z,21.7
2016-08-02T11:30:58.864Z,21.67
2016-08-02T11:31:58.612Z,21.64
2016-08-02T11:32:58.894Z,21.61
2016-08-02T11:33:58.386Z,21.66
2016-08-02T11:34:58.621Z,21.67
2016-08-02T11:35:58.694Z,21.6
2016-08-02T11:36:58.411Z,21.6
2016-08-02T11:37:58.719Z,21.61
2016-08-02T11:38:59.501Z,21.64
2016-08-02T11:39:59.140Z,21.64
2016-08-02T11:40:58.744Z,21.64
2016-08-02T11:41:58.994Z,21.57
2016-08-02T11:42:58.632Z,21.48
2016-08-02T11:43:58.591Z,21.52
2016-08-02T11:44:58.568Z,21.4
2016-08-02T11:45:58.326Z,21.39
2016-08-02T11:46:58.631Z,21.39
2016-08-02T11:47:59.302Z,21.3
2016-08-02T11:48:58.656Z,21.2
2016-08-02T11:49:58.546Z,21.24
2016-08-02T11:50:58.850Z,21.29
2016-08-02T11:51:59.290Z,21.45
2016-08-02T11:52:58.305Z,21.43
2016-08-02T11:53:58.387Z,21.4
2016-08-02T11:54:58.144Z,21.43
2016-08-02T11:55:58.369Z,21.5
2016-08-02T11:56:58.369Z,21.46
2016-08-02T11:57:58.258Z,21.42
2016-08-02T11:58:58.602Z,21.42
2016-08-02T11:59:58.238Z,21.54
2016-08-02T12:00:58.302Z,21.54
2016-08-02T12:01:58.056Z,21.5
2016-08-02T12:02:59.674Z,21.54
2016-08-02T12:03:57.921Z,21.52
2016-08-02T12:04:58.294Z,21.61
2016-08-02T12:05:58.312Z,21.61
2016-08-02T12:06:58.045Z,21.61
2016-08-02T12:07:58.225Z,21.6
2016-08-02T12:08:57.524Z,21.69
2016-08-02T12:09:57.420Z,21.7
2016-08-02T12:10:57.477Z,21.62
2016-08-02T12:11:57.389Z,21.67
2016-08-02T12:12:58.081Z,21.75
2016-08-02T12:13:57.684Z,21.73
2016-08-02T12:14:57.384Z,21.73
2016-08-02T12:15:57.247Z,21.75
2016-08-02T12:16:58.035Z,21.79
2016-08-02T12:17:57.774Z,21.89
2016-08-02T12:18:57.069Z,21.91
2016-08-02T12:19:57.088Z,21.83
2016-08-02T12:20:57.244Z,21.76
2016-08-02T12:21:57.154Z,21.83
2016-08-02T12:22:57.355Z,21.85
2016-08-02T12:23:57.437Z,21.93
2016-08-02T12:24:57.058Z,21.89
2016-08-02T12:25:57.573Z,21.96
2016-08-02T12:26:57.098Z,22.02
2016-08-02T12:27:57.116Z,21.96
2016-08-02T12:28:57.734Z,21.89
2016-08-02T12:29:57.419Z,21.82
2016-08-02T12:30:57.101Z,21.77
2016-08-02T12:31:57.119Z,21.88
2016-08-02T12:32:57.076Z,21.79
2016-08-02T12:33:57.099Z,21.69
2016-08-02T12:34:57.076Z,21.72
2016-08-02T12:35:57.341Z,21.7
2016-08-02T12:36:57.336Z,21.66
2016-08-02T12:37:57.221Z,21.69
2016-08-02T12:38:57.226Z,21.66
2016-08-02T12:39:57.322Z,21.64
2016-08-02T12:40:57.695Z,21.66
2016-08-02T12:41:57.197Z,21.66
2016-08-02T12:42:57.279Z,21.67
2016-08-02T12:43:57.440Z,21.69
2016-08-02T12:44:57.357Z,21.61
2016-08-02T12:45:57.414Z,21.67
2016-08-02T12:46:57.411Z,21.6
2016-08-02T12:47:57.415Z,21.5
2016-08-02T12:48:57.454Z,21.48
2016-08-02T12:49:57.646Z,21.55
2016-08-02T12:50:57.085Z,21.52
2016-08-02T12:51:58.013Z,21.48
2016-08-02T12:52:57.752Z,21.43
2016-08-02T12:53:57.224Z,21.57
2016-08-02T12:54:57.338Z,21.58
2016-08-02T12:56:56.858Z,21.72
2016-08-02T12:57:56.731Z,21.66
2016-08-02T12:58:56.696Z,21.64
2016-08-02T12:59:56.510Z,21.7
2016-08-02T13:00:57.360Z,21.6